createdAt,value
2023-12-18T00:04:55.419Z,53.18
2023-12-18T00:19:58.058Z,53.21
2023-12-18T00:35:00.618Z,53.21
2023-12-18T00:50:05.411Z,53.20
2023-12-18T01:05:11.069Z,53.16
2023-12-18T01:20:13.785Z,53.39
2023-12-18T01:35:15.496Z,53.32
2023-12-18T01:50:17.583Z,53.40
2023-12-18T02:05:20.161Z,53.40
2023-12-18T02:20:22.975Z,53.48
2023-12-18T02:35:25.555Z,53.80
2023-12-18T02:50:28.103Z,53.27
2023-12-18T03:05:30.765Z,53.40
2023-12-18T03:20:33.461Z,53.56
2023-12-18T03:35:36.833Z,53.76
2023-12-18T03:50:39.373Z,53.09
2023-12-18T04:05:43.033Z,53.11
2023-12-18T04:20:45.580Z,53.59
2023-12-18T04:35:47.279Z,53.41
2023-12-18T04:50:49.804Z,53.10
2023-12-18T05:05:52.391Z,52.97
2023-12-18T05:20:54.937Z,53.33
2023-12-18T05:35:57.531Z,53.12
2023-12-18T05:50:59.274Z,53.09
2023-12-18T06:06:00.942Z,53.49
2023-12-18T06:21:07.688Z,53.30
2023-12-18T06:36:10.387Z,53.16
2023-12-18T06:51:13.118Z,53.33
2023-12-18T07:06:15.834Z,53.42
2023-12-18T07:21:18.827Z,53.43
2023-12-18T07:36:21.556Z,53.17
2023-12-18T07:51:24.393Z,52.94
2023-12-18T08:06:26.964Z,53.29
2023-12-18T08:21:30.029Z,52.99
2023-12-18T08:36:32.609Z,53.27
2023-12-18T08:51:35.463Z,53.35
2023-12-18T09:06:38.833Z,53.19
2023-12-18T09:21:42.152Z,53.45
2023-12-18T09:36:48.502Z,55.78
2023-12-18T09:51:54.300Z,56.24
2023-12-18T10:06:56.801Z,55.50
2023-12-18T10:22:00.213Z,54.95
2023-12-18T10:37:02.629Z,54.55
2023-12-18T10:52:06.680Z,55.05
2023-12-18T11:07:09.957Z,54.71
2023-12-18T11:22:12.904Z,54.59
2023-12-18T11:37:14.685Z,54.79
2023-12-18T11:52:18.330Z,54.53
2023-12-18T12:07:21.066Z,54.42
2023-12-18T12:22:24.212Z,54.76
2023-12-18T12:37:25.974Z,55.97
2023-12-18T12:52:30.969Z,56.03
2023-12-18T13:07:34.337Z,55.92
2023-12-18T13:22:37.913Z,55.23
2023-12-18T13:37:41.940Z,55.07
2023-12-18T13:52:44.300Z,55.29
2023-12-18T14:07:47.155Z,55.41
2023-12-18T14:22:50.481Z,55.08
2023-12-18T14:37:53.014Z,55.76
2023-12-18T14:52:56.703Z,56.04
2023-12-18T15:08:00.067Z,56.28
2023-12-18T15:23:02.675Z,55.92
2023-12-18T15:38:05.525Z,55.68
2023-12-18T15:53:08.317Z,55.79
2023-12-18T16:08:11.075Z,55.20
2023-12-18T16:23:14.515Z,55.47
2023-12-18T16:38:17.809Z,55.63
2023-12-18T16:53:20.672Z,55.13
2023-12-18T17:08:24.623Z,54.61
2023-12-18T17:23:27.655Z,54.82
2023-12-18T17:38:30.873Z,54.65
2023-12-18T17:53:33.383Z,54.58
2023-12-18T18:08:35.200Z,54.73
2023-12-18T18:23:38.888Z,54.68
2023-12-18T18:38:40.648Z,54.57
2023-12-18T18:53:42.603Z,54.23
2023-12-18T19:08:45.180Z,54.65
2023-12-18T19:23:46.844Z,54.33
2023-12-18T19:38:49.140Z,54.37
2023-12-18T19:53:55.670Z,54.05
2023-12-18T20:08:58.350Z,54.40
2023-12-18T20:24:01.275Z,54.41
2023-12-18T20:39:04.178Z,54.10
2023-12-18T20:54:05.891Z,54.35
2023-12-18T21:09:07.952Z,54.22
2023-12-18T21:24:10.592Z,54.90
2023-12-18T21:39:12.310Z,54.52
2023-12-18T21:54:14.316Z,54.65
2023-12-18T22:09:16.846Z,54.93
2023-12-18T22:24:19.637Z,54.63
2023-12-18T22:39:22.277Z,54.49
2023-12-18T22:54:24.923Z,54.07
2023-12-18T23:09:28.856Z,53.68
2023-12-18T23:24:31.500Z,53.79
2023-12-18T23:39:33.248Z,53.80
2023-12-18T23:54:34.959Z,53.53
